createdAt,value
2022-10-20T00:00:21.905Z,18.80
2022-10-20T00:02:48.720Z,17.00
2022-10-20T00:05:15.611Z,17.83
2022-10-20T00:07:42.316Z,16.75
2022-10-20T00:10:09.464Z,20.15
2022-10-20T00:12:36.456Z,18.58
2022-10-20T00:15:04.290Z,17.13
2022-10-20T00:17:30.942Z,18.60
2022-10-20T00:19:58.383Z,17.65
2022-10-20T00:22:25.007Z,19.85
2022-10-20T00:24:52.250Z,21.30
2022-10-20T00:27:18.882Z,19.08
2022-10-20T00:29:48.082Z,21.77
2022-10-20T00:32:14.783Z,17.30
2022-10-20T00:34:41.465Z,20.73
2022-10-20T00:37:08.145Z,18.45
2022-10-20T00:39:34.865Z,19.90
2022-10-20T00:42:05.482Z,20.58
2022-10-20T00:44:49.973Z,21.02
2022-10-20T00:47:40.411Z,16.80
2022-10-20T00:50:29.801Z,19.00
2022-10-20T00:52:56.753Z,21.02
2022-10-20T00:55:29.892Z,16.80
2022-10-20T00:57:58.484Z,16.70
2022-10-20T01:00:26.270Z,20.38
2022-10-20T01:02:56.428Z,19.65
2022-10-20T01:05:23.823Z,16.65
2022-10-20T01:07:50.470Z,16.88
2022-10-20T01:10:17.941Z,18.70
2022-10-20T01:13:06.197Z,19.08
2022-10-20T01:15:50.907Z,17.58
2022-10-20T01:18:23.421Z,20.73
2022-10-20T01:21:14.958Z,16.88
2022-10-20T01:24:09.317Z,21.27
2022-10-20T01:27:15.035Z,16.48
2022-10-20T01:30:10.982Z,15.90
2022-10-20T01:32:43.536Z,17.48
2022-10-20T01:35:19.704Z,21.10
2022-10-20T01:38:01.604Z,19.73
2022-10-20T01:40:57.915Z,21.75
2022-10-20T01:43:28.126Z,23.05
2022-10-20T01:45:57.725Z,24.15
2022-10-20T01:48:28.201Z,19.73
2022-10-20T01:50:55.478Z,19.60
2022-10-20T01:53:22.135Z,20.40
2022-10-20T01:55:54.306Z,25.10
2022-10-20T01:58:54.453Z,27.63
2022-10-20T02:01:54.917Z,21.95
2022-10-20T02:04:32.565Z,24.98
2022-10-20T02:07:08.929Z,25.70
2022-10-20T02:09:48.535Z,23.85
2022-10-20T02:12:25.136Z,25.38
2022-10-20T02:14:53.220Z,21.95
2022-10-20T02:17:21.049Z,29.08
2022-10-20T02:19:51.846Z,30.00
2022-10-20T02:22:20.669Z,23.30
2022-10-20T02:24:48.551Z,24.92
2022-10-20T02:27:24.618Z,25.25
2022-10-20T02:29:58.631Z,26.75
2022-10-20T02:32:25.716Z,29.25
2022-10-20T02:34:52.372Z,27.00
2022-10-20T02:37:19.119Z,34.53
2022-10-20T02:39:45.816Z,29.67
2022-10-20T02:42:12.688Z,32.08
2022-10-20T02:44:39.450Z,34.03
2022-10-20T02:47:06.132Z,26.60
2022-10-20T02:49:32.823Z,38.50
2022-10-20T02:51:59.473Z,36.50
2022-10-20T02:54:28.668Z,31.00
2022-10-20T02:56:56.010Z,35.83
2022-10-20T02:59:22.652Z,32.58
2022-10-20T03:01:51.265Z,48.78
2022-10-20T03:04:18.417Z,61.80
2022-10-20T03:06:45.079Z,51.42
2022-10-20T03:09:11.750Z,72.28
2022-10-20T03:11:38.455Z,61.80
2022-10-20T03:14:05.316Z,125.90
2022-10-20T03:16:32.074Z,132.43
2022-10-20T03:19:01.660Z,74.45
2022-10-20T03:21:31.332Z,107.53
2022-10-20T03:23:58.166Z,96.18
2022-10-20T03:26:24.873Z,114.85
2022-10-20T03:28:51.488Z,92.35
2022-10-20T03:31:18.173Z,112.25
2022-10-20T03:33:44.980Z,134.40
2022-10-20T03:36:11.715Z,122.03
2022-10-20T03:38:42.554Z,86.60
2022-10-20T03:41:10.146Z,110.53
2022-10-20T03:43:38.586Z,116.53
2022-10-20T03:46:08.188Z,133.60
2022-10-20T03:48:35.663Z,145.35
2022-10-20T03:51:02.968Z,90.30
2022-10-20T03:53:29.911Z,92.85
2022-10-20T03:55:56.655Z,109.78
2022-10-20T03:58:23.342Z,63.20
2022-10-20T04:00:50.379Z,109.45
2022-10-20T04:03:17.019Z,138.05
2022-10-20T04:05:44.805Z,112.28
2022-10-20T04:08:11.562Z,87.10
2022-10-20T04:10:38.390Z,87.68
2022-10-20T04:13:05.022Z,95.60
2022-10-20T04:15:31.766Z,113.35
2022-10-20T04:17:58.542Z,96.15
2022-10-20T04:20:25.414Z,147.48
2022-10-20T04:22:52.093Z,117.55
2022-10-20T04:25:18.801Z,94.43
2022-10-20T04:27:45.489Z,142.48
2022-10-20T04:30:12.311Z,103.30
2022-10-20T04:32:39.057Z,114.95
2022-10-20T04:35:06.064Z,111.35
2022-10-20T04:37:32.834Z,134.73
2022-10-20T04:39:59.688Z,130.60
2022-10-20T04:42:26.336Z,193.80
2022-10-20T04:44:53.019Z,104.82
2022-10-20T04:47:19.691Z,141.77
2022-10-20T04:49:46.335Z,85.57
2022-10-20T04:52:12.978Z,94.75
2022-10-20T04:54:39.646Z,127.63
2022-10-20T04:57:06.541Z,114.88
2022-10-20T04:59:33.303Z,168.00
2022-10-20T05:02:00.000Z,131.55
2022-10-20T05:04:26.820Z,111.30
2022-10-20T05:06:53.475Z,169.18
2022-10-20T05:09:20.159Z,126.85
2022-10-20T05:11:46.937Z,160.65
2022-10-20T05:14:13.709Z,168.98
2022-10-20T05:16:40.356Z,170.48
2022-10-20T05:19:07.051Z,133.90
2022-10-20T05:21:35.832Z,160.52
2022-10-20T05:24:05.299Z,155.82
2022-10-20T05:26:36.543Z,152.80
2022-10-20T05:29:05.777Z,189.20
2022-10-20T05:31:37.016Z,153.55
2022-10-20T05:34:03.731Z,137.52
2022-10-20T05:36:30.447Z,103.55
2022-10-20T05:38:57.202Z,142.23
2022-10-20T05:41:32.152Z,106.57
2022-10-20T05:44:04.827Z,195.15
2022-10-20T05:46:34.443Z,140.63
2022-10-20T05:49:03.179Z,162.65
2022-10-20T05:51:34.177Z,115.75
2022-10-20T05:54:02.106Z,99.50
2022-10-20T05:56:30.512Z,161.23
2022-10-20T05:58:57.936Z,114.03
2022-10-20T06:01:39.410Z,120.30
2022-10-20T06:04:10.488Z,99.30
2022-10-20T06:06:37.169Z,121.15
2022-10-20T06:09:07.058Z,117.28
2022-10-20T06:11:38.387Z,100.43
2022-10-20T06:14:05.924Z,98.07
2022-10-20T06:16:32.896Z,124.95
2022-10-20T06:19:00.099Z,115.30
2022-10-20T06:21:29.410Z,155.32
2022-10-20T06:23:58.069Z,174.63
2022-10-20T06:26:26.409Z,176.40
2022-10-20T06:28:58.637Z,142.07
2022-10-20T06:31:29.439Z,130.27
2022-10-20T06:33:56.790Z,142.50
2022-10-20T06:36:25.473Z,123.55
2022-10-20T06:38:59.345Z,125.97
2022-10-20T06:41:27.292Z,124.07
2022-10-20T06:43:58.942Z,129.40
2022-10-20T06:46:32.557Z,105.97
2022-10-20T06:49:04.418Z,103.93
2022-10-20T06:51:31.513Z,82.15
2022-10-20T06:53:59.743Z,115.22
2022-10-20T06:56:29.287Z,119.60
2022-10-20T06:58:58.071Z,134.68
2022-10-20T07:01:32.786Z,170.48
2022-10-20T07:04:05.992Z,153.32
2022-10-20T07:06:35.308Z,147.27
2022-10-20T07:09:04.213Z,116.07
2022-10-20T07:11:32.286Z,136.45
2022-10-20T07:14:00.118Z,94.38
2022-10-20T07:16:29.543Z,129.02
2022-10-20T07:18:57.438Z,102.28
2022-10-20T07:21:34.641Z,84.90
2022-10-20T07:24:06.153Z,107.57
2022-10-20T07:26:35.790Z,111.57
2022-10-20T07:29:03.944Z,138.35
2022-10-20T07:31:33.789Z,97.95
2022-10-20T07:34:13.686Z,124.15
2022-10-20T07:36:49.592Z,99.95
2022-10-20T07:39:16.324Z,77.60
2022-10-20T07:41:47.757Z,63.25
2022-10-20T07:44:14.800Z,89.32
2022-10-20T07:46:41.752Z,140.25
2022-10-20T07:51:55.242Z,139.18
2022-10-20T07:54:22.060Z,99.90
2022-10-20T07:56:49.511Z,110.00
2022-10-20T07:59:16.420Z,152.82
2022-10-20T08:01:43.184Z,108.25
2022-10-20T08:04:10.001Z,68.32
2022-10-20T08:06:36.739Z,134.80
2022-10-20T08:09:03.946Z,154.20
2022-10-20T08:11:30.625Z,98.75
2022-10-20T08:13:57.302Z,93.07
2022-10-20T08:16:40.212Z,117.45
2022-10-20T08:19:10.313Z,67.45
2022-10-20T08:21:36.962Z,93.85
2022-10-20T08:24:03.990Z,82.82
2022-10-20T08:26:30.742Z,56.25
2022-10-20T08:28:57.423Z,77.15
2022-10-20T08:31:24.160Z,116.97
2022-10-20T08:33:52.893Z,85.93
2022-10-20T08:36:20.827Z,59.97
2022-10-20T08:38:47.899Z,97.55
2022-10-20T08:41:43.456Z,68.10
2022-10-20T08:44:34.378Z,69.43
2022-10-20T08:47:03.605Z,63.80
2022-10-20T08:49:34.058Z,82.35
2022-10-20T08:52:01.875Z,105.82
2022-10-20T08:54:28.664Z,72.05
2022-10-20T08:56:55.418Z,82.28
2022-10-20T08:59:27.069Z,65.30
2022-10-20T09:01:55.348Z,56.70
2022-10-20T09:04:32.711Z,98.45
2022-10-20T09:07:05.753Z,80.05
2022-10-20T09:09:33.678Z,94.15
2022-10-20T09:12:06.245Z,83.63
2022-10-20T09:14:37.559Z,99.88
2022-10-20T09:17:07.958Z,120.80
2022-10-20T09:19:36.543Z,149.65
2022-10-20T09:22:06.062Z,128.55
2022-10-20T09:24:35.247Z,106.28
2022-10-20T09:27:36.524Z,81.97
2022-10-20T09:30:23.782Z,107.38
2022-10-20T09:32:50.690Z,92.68
2022-10-20T09:35:32.944Z,101.15
2022-10-20T09:38:11.567Z,82.10
2022-10-20T09:41:01.753Z,122.15
2022-10-20T09:43:28.657Z,138.13
2022-10-20T09:46:20.814Z,102.38
2022-10-20T09:48:49.392Z,134.23
2022-10-20T09:51:23.872Z,116.68
2022-10-20T09:53:50.452Z,74.05
2022-10-20T09:56:29.912Z,96.65
2022-10-20T09:58:58.072Z,79.70
2022-10-20T10:01:24.958Z,77.60
2022-10-20T10:03:56.189Z,96.18
2022-10-20T10:06:28.961Z,64.07
2022-10-20T10:08:57.116Z,90.68
2022-10-20T10:11:29.795Z,93.93
2022-10-20T10:13:56.517Z,75.82
2022-10-20T10:16:26.596Z,56.95
2022-10-20T10:19:02.457Z,61.70
2022-10-20T10:21:43.208Z,116.65
2022-10-20T10:24:34.172Z,114.68
2022-10-20T10:27:02.219Z,111.25
2022-10-20T10:29:32.873Z,109.70
2022-10-20T10:32:04.295Z,86.85
2022-10-20T10:34:55.805Z,150.87
2022-10-20T10:37:22.918Z,120.05
2022-10-20T10:39:49.748Z,106.22
2022-10-20T10:42:42.284Z,111.40
2022-10-20T10:45:40.386Z,118.30
2022-10-20T10:48:48.200Z,137.07
2022-10-20T10:51:31.110Z,58.90
2022-10-20T10:54:12.288Z,70.45
2022-10-20T10:56:47.539Z,94.45
2022-10-20T10:59:33.440Z,92.05
2022-10-20T11:02:31.127Z,93.53
2022-10-20T11:05:01.022Z,124.40
2022-10-20T11:07:42.522Z,83.95
2022-10-20T11:10:27.109Z,111.43
2022-10-20T11:12:59.938Z,77.90
2022-10-20T11:15:51.083Z,68.22
2022-10-20T11:18:42.332Z,62.65
2022-10-20T11:21:28.874Z,90.35
2022-10-20T11:24:33.265Z,85.25
2022-10-20T11:27:08.027Z,76.20
2022-10-20T11:29:43.902Z,92.90
2022-10-20T11:32:29.358Z,114.68
2022-10-20T11:35:19.197Z,81.35
2022-10-20T11:37:54.874Z,48.58
2022-10-20T11:40:22.945Z,58.47
2022-10-20T11:43:18.520Z,74.35
2022-10-20T11:45:54.456Z,70.50
2022-10-20T11:48:27.273Z,47.25
2022-10-20T11:51:14.114Z,89.85
2022-10-20T11:53:49.760Z,48.83
2022-10-20T11:56:19.422Z,50.22
2022-10-20T11:58:46.082Z,49.15
2022-10-20T12:01:37.041Z,39.40
2022-10-20T12:04:09.620Z,40.35
2022-10-20T12:06:48.512Z,35.80
2022-10-20T12:09:47.530Z,32.10
2022-10-20T12:12:25.140Z,42.85
2022-10-20T12:14:58.949Z,32.60
2022-10-20T12:17:36.062Z,34.90
2022-10-20T12:20:21.151Z,37.05
2022-10-20T12:22:50.664Z,40.60
2022-10-20T12:25:18.832Z,36.13
2022-10-20T12:27:45.475Z,36.40
2022-10-20T12:30:18.179Z,40.55
2022-10-20T12:33:08.586Z,42.65
2022-10-20T12:35:57.671Z,46.50
2022-10-20T12:38:24.643Z,40.95
2022-10-20T12:40:57.987Z,46.72
2022-10-20T12:43:24.651Z,44.53
2022-10-20T12:45:51.526Z,40.65
2022-10-20T12:48:24.169Z,47.28
2022-10-20T12:50:52.221Z,40.38
2022-10-20T12:53:28.698Z,34.47
2022-10-20T12:56:07.289Z,36.50
2022-10-20T12:58:36.027Z,37.40
2022-10-20T13:01:09.990Z,41.22
2022-10-20T13:03:44.165Z,38.95
2022-10-20T13:06:22.997Z,41.65
2022-10-20T13:09:05.197Z,37.83
2022-10-20T13:11:38.166Z,42.20
2022-10-20T13:14:13.930Z,37.78
2022-10-20T13:16:46.427Z,38.30
2022-10-20T13:19:21.512Z,44.30
2022-10-20T13:21:49.844Z,41.63
2022-10-20T13:24:27.386Z,42.00
2022-10-20T13:26:57.662Z,63.33
2022-10-20T13:29:43.925Z,40.58
2022-10-20T13:32:37.874Z,45.50
2022-10-20T13:35:29.939Z,37.33
2022-10-20T13:38:18.001Z,47.10
2022-10-20T13:41:14.016Z,47.28
2022-10-20T13:43:57.874Z,46.22
2022-10-20T13:46:40.683Z,41.92
2022-10-20T13:49:07.300Z,47.00
2022-10-20T13:51:42.827Z,49.85
2022-10-20T13:54:25.193Z,44.85
2022-10-20T13:59:25.117Z,43.25
2022-10-20T14:02:01.742Z,41.17
2022-10-20T14:04:30.176Z,45.45
2022-10-20T14:07:05.146Z,45.17
2022-10-20T14:09:31.965Z,45.05
2022-10-20T14:12:19.069Z,46.72
2022-10-20T14:14:45.958Z,41.45
2022-10-20T14:17:20.723Z,56.03
2022-10-20T14:19:47.470Z,39.58
2022-10-20T14:22:25.656Z,48.92
2022-10-20T14:24:57.602Z,45.92
2022-10-20T14:27:32.364Z,42.92
2022-10-20T14:30:00.130Z,42.08
2022-10-20T14:32:30.131Z,44.08
2022-10-20T14:35:40.893Z,38.38
2022-10-20T14:38:24.692Z,45.50
2022-10-20T14:40:59.025Z,40.10
2022-10-20T14:43:39.153Z,51.25
2022-10-20T14:46:08.911Z,59.53
2022-10-20T14:48:45.735Z,54.83
2022-10-20T14:51:33.816Z,50.63
2022-10-20T14:54:39.603Z,47.05
2022-10-20T14:57:09.335Z,49.17
2022-10-20T14:59:51.366Z,52.80
2022-10-20T15:02:21.416Z,63.65
2022-10-20T15:04:49.392Z,72.18
2022-10-20T15:07:23.293Z,55.42
2022-10-20T15:10:06.071Z,57.50
2022-10-20T15:12:38.237Z,68.40
2022-10-20T15:15:18.899Z,68.75
2022-10-20T15:17:47.996Z,63.03
2022-10-20T15:20:40.636Z,61.38
2022-10-20T15:23:21.301Z,66.05
2022-10-20T15:26:05.774Z,60.25
2022-10-20T15:28:37.106Z,59.15
2022-10-20T15:31:29.174Z,60.87
2022-10-20T15:33:57.735Z,63.85
2022-10-20T15:36:29.546Z,56.47
2022-10-20T15:38:56.833Z,61.00
2022-10-20T15:41:26.619Z,61.28
2022-10-20T15:43:53.711Z,76.15
2022-10-20T15:46:20.843Z,72.53
2022-10-20T15:48:48.018Z,48.88
2022-10-20T15:51:24.175Z,58.58
2022-10-20T15:53:51.135Z,72.55
2022-10-20T15:56:18.568Z,52.95
2022-10-20T15:58:45.294Z,61.88
2022-10-20T16:01:13.623Z,81.70
2022-10-20T16:03:43.323Z,81.05
2022-10-20T16:06:13.564Z,79.57
2022-10-20T16:08:45.023Z,80.93
2022-10-20T16:11:12.660Z,48.35
2022-10-20T16:13:40.165Z,62.80
2022-10-20T16:16:09.169Z,62.72
2022-10-20T16:18:35.867Z,52.92
2022-10-20T16:21:04.385Z,54.47
2022-10-20T16:23:31.602Z,53.05
2022-10-20T16:25:58.231Z,50.25
2022-10-20T16:28:24.905Z,80.15
2022-10-20T16:31:00.733Z,60.30
2022-10-20T16:33:28.240Z,59.70
2022-10-20T16:35:54.934Z,51.92
2022-10-20T16:38:21.653Z,75.10
2022-10-20T16:41:02.970Z,63.13
2022-10-20T16:43:30.056Z,64.60
2022-10-20T16:45:56.789Z,78.22
2022-10-20T16:48:24.153Z,77.97
2022-10-20T16:50:50.991Z,82.32
2022-10-20T16:53:17.730Z,60.92
2022-10-20T16:55:52.338Z,82.47
2022-10-20T16:58:19.342Z,74.15
2022-10-20T17:00:46.084Z,89.68
2022-10-20T17:03:14.942Z,81.70
2022-10-20T17:05:45.162Z,60.72
2022-10-20T17:08:11.816Z,56.90
2022-10-20T17:10:38.545Z,62.85
2022-10-20T17:13:05.228Z,76.43
2022-10-20T17:15:31.852Z,104.60
2022-10-20T17:17:58.559Z,117.90
2022-10-20T17:20:25.234Z,91.80
2022-10-20T17:22:55.375Z,85.57
2022-10-20T17:25:22.150Z,95.90
2022-10-20T17:27:48.830Z,96.95
2022-10-20T17:30:15.524Z,91.28
2022-10-20T17:32:43.182Z,93.03
2022-10-20T17:35:10.613Z,130.55
2022-10-20T17:37:37.281Z,95.88
2022-10-20T17:40:04.187Z,143.30
2022-10-20T17:42:32.702Z,137.57
2022-10-20T17:44:59.397Z,107.28
2022-10-20T17:47:26.033Z,101.90
2022-10-20T17:49:52.707Z,98.65
2022-10-20T17:52:19.403Z,128.55
2022-10-20T17:54:46.051Z,100.72
2022-10-20T17:57:12.717Z,93.68
2022-10-20T17:59:52.159Z,108.80
2022-10-20T18:02:23.716Z,119.68
2022-10-20T18:04:51.114Z,95.80
2022-10-20T18:07:17.828Z,118.25
2022-10-20T18:09:44.643Z,93.47
2022-10-20T18:12:11.395Z,108.75
2022-10-20T18:14:38.014Z,82.75
2022-10-20T18:17:04.693Z,85.10
2022-10-20T18:19:31.468Z,93.57
2022-10-20T18:21:58.270Z,79.15
2022-10-20T18:24:25.217Z,79.88
2022-10-20T18:26:51.941Z,78.00
2022-10-20T18:29:18.674Z,73.20
2022-10-20T18:31:47.162Z,114.85
2022-10-20T18:34:25.793Z,80.78
2022-10-20T18:36:55.150Z,72.20
2022-10-20T18:39:21.902Z,48.50
2022-10-20T18:41:52.031Z,68.55
2022-10-20T18:44:19.316Z,44.25
2022-10-20T18:46:47.400Z,85.13
2022-10-20T18:49:16.542Z,70.38
2022-10-20T18:51:45.410Z,89.50
2022-10-20T18:54:12.552Z,82.68
2022-10-20T18:56:39.241Z,69.28
2022-10-20T18:59:08.727Z,84.43
2022-10-20T19:01:37.943Z,57.42
2022-10-20T19:04:05.354Z,38.45
2022-10-20T19:06:37.106Z,80.07
2022-10-20T19:09:09.253Z,58.72
2022-10-20T19:14:03.824Z,56.88
2022-10-20T19:16:33.489Z,55.10
2022-10-20T19:19:03.186Z,70.18
2022-10-20T19:21:31.142Z,67.32
2022-10-20T19:24:08.975Z,58.45
2022-10-20T19:26:39.731Z,49.53
2022-10-20T19:29:10.072Z,61.40
2022-10-20T19:31:43.345Z,82.70
2022-10-20T19:34:15.005Z,44.15
2022-10-20T19:36:43.174Z,35.08
2022-10-20T19:39:11.486Z,40.70
2022-10-20T19:41:38.359Z,42.15
2022-10-20T19:44:05.222Z,53.60
2022-10-20T19:46:31.926Z,54.55
2022-10-20T19:48:59.248Z,47.53
2022-10-20T19:51:26.008Z,38.08
2022-10-20T19:53:52.731Z,33.17
2022-10-20T19:56:19.386Z,51.15
2022-10-20T19:58:46.859Z,60.72
2022-10-20T20:01:14.055Z,37.55
2022-10-20T20:03:40.801Z,30.58
2022-10-20T20:06:10.285Z,32.72
2022-10-20T20:08:37.542Z,30.42
2022-10-20T20:11:06.633Z,35.13
2022-10-20T20:13:33.302Z,36.35
2022-10-20T20:16:08.258Z,32.60
2022-10-20T20:18:35.876Z,36.20
2022-10-20T20:21:04.723Z,35.53
2022-10-20T20:23:47.718Z,41.75
2022-10-20T20:26:21.013Z,43.88
2022-10-20T20:28:47.667Z,64.47
2022-10-20T20:31:14.486Z,42.35
2022-10-20T20:33:41.154Z,45.78
2022-10-20T20:36:08.825Z,44.42
2022-10-20T20:38:37.884Z,34.25
2022-10-20T20:41:07.466Z,36.33
2022-10-20T20:43:37.714Z,36.22
2022-10-20T20:46:06.170Z,32.83
2022-10-20T20:48:34.895Z,33.50
2022-10-20T20:51:01.612Z,33.10
2022-10-20T20:53:28.310Z,31.60
2022-10-20T20:56:00.504Z,33.78
2022-10-20T21:01:06.384Z,31.50
2022-10-20T21:03:33.813Z,36.72
2022-10-20T21:06:09.198Z,33.35
2022-10-20T21:08:37.881Z,37.78
2022-10-20T21:11:10.239Z,37.75
2022-10-20T21:13:37.680Z,36.95
2022-10-20T21:16:17.021Z,34.38
2022-10-20T21:18:47.804Z,35.33
2022-10-20T21:21:20.806Z,38.85
2022-10-20T21:23:47.785Z,38.67
2022-10-20T21:26:16.710Z,40.60
2022-10-20T21:28:43.968Z,38.75
2022-10-20T21:31:13.421Z,38.17
2022-10-20T21:33:41.191Z,36.63
2022-10-20T21:36:10.466Z,35.30
2022-10-20T21:38:38.672Z,37.20
2022-10-20T21:41:14.371Z,32.08
2022-10-20T21:43:43.786Z,40.60
2022-10-20T21:46:21.301Z,83.07
2022-10-20T21:48:50.510Z,58.45
2022-10-20T21:51:23.080Z,71.35
2022-10-20T21:53:54.036Z,128.00
2022-10-20T21:56:20.686Z,70.20
2022-10-20T21:58:47.333Z,96.65
2022-10-20T22:01:22.840Z,113.00
2022-10-20T22:03:51.186Z,112.40
2022-10-20T22:06:20.728Z,99.05
2022-10-20T22:08:49.926Z,44.45
2022-10-20T22:11:22.889Z,71.75
2022-10-20T22:13:49.994Z,64.40
2022-10-20T22:16:19.592Z,31.25
2022-10-20T22:18:47.037Z,38.58
2022-10-20T22:21:16.289Z,45.35
2022-10-20T22:23:44.763Z,61.70
2022-10-20T22:26:12.534Z,33.92
2022-10-20T22:28:40.106Z,80.93
2022-10-20T22:31:07.945Z,33.83
2022-10-20T22:33:36.163Z,144.48
2022-10-20T22:36:04.703Z,31.70
2022-10-20T22:38:31.553Z,99.97
2022-10-20T22:41:02.365Z,77.75
2022-10-20T22:43:30.957Z,79.35
2022-10-20T22:45:57.953Z,33.60
2022-10-20T22:48:25.101Z,32.83
2022-10-20T22:50:51.777Z,40.50
2022-10-20T22:53:18.831Z,26.63
2022-10-20T22:55:45.652Z,58.92
2022-10-20T22:58:12.506Z,58.65
2022-10-20T23:00:40.240Z,56.17
2022-10-20T23:03:07.125Z,112.25
2022-10-20T23:05:35.549Z,81.68
2022-10-20T23:08:02.331Z,81.03
2022-10-20T23:10:29.040Z,67.35
2022-10-20T23:12:55.718Z,101.20
2022-10-20T23:15:22.394Z,94.47
2022-10-20T23:17:49.037Z,56.70
2022-10-20T23:20:15.877Z,95.85
2022-10-20T23:22:42.532Z,65.47
2022-10-20T23:25:09.327Z,111.53
2022-10-20T23:27:36.337Z,82.00
2022-10-20T23:30:03.696Z,62.78
2022-10-20T23:32:30.496Z,95.82
2022-10-20T23:34:57.125Z,139.00
2022-10-20T23:37:23.850Z,112.03
2022-10-20T23:39:51.104Z,101.50
2022-10-20T23:42:17.768Z,110.93
2022-10-20T23:44:44.484Z,94.07
2022-10-20T23:47:11.161Z,76.45
2022-10-20T23:49:37.894Z,42.30
2022-10-20T23:52:05.012Z,81.13
2022-10-20T23:54:31.722Z,76.30
2022-10-20T23:56:58.460Z,87.78
2022-10-20T23:59:25.137Z,48.13
